createdAt,value
2023-04-12T04:00:28.264Z,983.12
2023-04-12T04:05:28.192Z,982.90
2023-04-12T04:10:28.153Z,982.81
2023-04-12T04:15:35.203Z,982.74
2023-04-12T04:20:28.100Z,982.68
2023-04-12T04:25:27.984Z,982.59
2023-04-12T04:30:27.935Z,982.39
2023-04-12T04:35:27.911Z,982.41
2023-04-12T04:40:27.819Z,982.18
2023-04-12T04:45:27.862Z,982.27
2023-04-12T04:50:27.717Z,982.18
2023-04-12T04:55:27.692Z,982.20
2023-04-12T05:00:27.613Z,982.07
2023-04-12T05:05:27.561Z,982.00
2023-04-12T05:10:27.515Z,981.90
2023-04-12T05:15:27.488Z,981.90
2023-04-12T05:20:27.434Z,981.86
2023-04-12T05:25:27.344Z,981.86
2023-04-12T05:30:27.308Z,981.74
2023-04-12T05:35:27.275Z,981.62
2023-04-12T05:40:27.183Z,981.58
2023-04-12T05:45:27.141Z,981.43
2023-04-12T05:50:27.091Z,981.38
2023-04-12T05:55:27.092Z,981.33
2023-04-12T06:00:26.966Z,981.29
2023-04-12T06:05:26.989Z,981.26
2023-04-12T06:10:26.889Z,981.19
2023-04-12T06:15:26.917Z,981.18
2023-04-12T06:20:26.785Z,981.04
2023-04-12T06:25:26.731Z,980.98
2023-04-12T06:30:26.712Z,980.87
2023-04-12T06:35:26.616Z,980.92
2023-04-12T06:40:26.625Z,980.86
2023-04-12T06:45:26.535Z,980.69
2023-04-12T06:50:26.607Z,980.48
2023-04-12T06:55:26.446Z,980.58
2023-04-12T07:00:26.362Z,980.43
2023-04-12T07:05:26.290Z,980.30
2023-04-12T07:10:26.267Z,980.22
2023-04-12T07:15:26.192Z,980.12
2023-04-12T07:20:26.206Z,980.14
2023-04-12T07:25:26.069Z,979.98
2023-04-12T07:30:26.213Z,979.97
2023-04-12T07:35:25.995Z,979.86
2023-04-12T07:40:25.928Z,979.82
2023-04-12T07:45:25.840Z,979.67
2023-04-12T07:50:25.824Z,979.64
2023-04-12T07:55:25.835Z,979.38
2023-04-12T08:00:25.682Z,979.46
2023-04-12T08:05:25.664Z,979.57
2023-04-12T08:10:25.585Z,979.50
2023-04-12T08:15:25.591Z,979.63
2023-04-12T08:20:25.496Z,979.59
2023-04-12T08:25:25.415Z,979.55
2023-04-12T08:30:25.363Z,979.50
2023-04-12T08:35:25.349Z,979.54
2023-04-12T08:40:25.235Z,979.33
2023-04-12T08:45:25.197Z,979.34
2023-04-12T08:50:25.150Z,979.28
2023-04-12T08:55:25.242Z,979.33
2023-04-12T09:00:25.047Z,979.30
2023-04-12T09:05:25.123Z,979.35
2023-04-12T09:10:24.916Z,979.16
2023-04-12T09:15:25.063Z,979.09
2023-04-12T09:20:24.974Z,979.16
2023-04-12T09:25:24.811Z,979.11
2023-04-12T09:30:24.729Z,979.11
2023-04-12T09:35:24.900Z,979.10
2023-04-12T09:40:24.642Z,979.17
2023-04-12T09:45:24.550Z,979.07
2023-04-12T09:50:24.518Z,979.03
2023-04-12T09:55:24.442Z,978.95
2023-04-12T10:00:24.365Z,979.08
2023-04-12T10:05:24.701Z,979.05
2023-04-12T10:10:24.246Z,978.89
2023-04-12T10:15:24.236Z,978.88
2023-04-12T10:20:27.081Z,978.77
2023-04-12T10:25:24.129Z,978.65
2023-04-12T10:30:24.107Z,978.68
2023-04-12T10:35:24.262Z,978.49
2023-04-12T10:40:23.945Z,978.55
2023-04-12T10:45:23.869Z,978.55
2023-04-12T10:50:23.852Z,978.68
2023-04-12T10:55:23.808Z,978.56
2023-04-12T11:00:23.760Z,978.84
2023-04-12T11:05:23.723Z,979.05
2023-04-12T11:10:23.605Z,979.11
2023-04-12T11:15:23.610Z,979.14
2023-04-12T11:20:23.522Z,979.10
2023-04-12T11:25:23.434Z,979.01
2023-04-12T11:30:23.388Z,979.12
2023-04-12T11:35:23.386Z,979.04
2023-04-12T11:40:23.346Z,978.91
2023-04-12T11:45:23.233Z,978.90
2023-04-12T11:50:23.186Z,978.97
2023-04-12T11:55:23.134Z,978.96
2023-04-12T12:00:23.030Z,978.98
2023-04-12T12:05:23.218Z,979.00
2023-04-12T12:10:41.532Z,978.93
2023-04-12T12:15:23.933Z,978.94
2023-04-12T12:20:22.841Z,978.95
2023-04-12T12:25:22.790Z,978.96
2023-04-12T12:30:22.728Z,979.04
2023-04-12T12:35:22.723Z,978.99
2023-04-12T12:40:22.645Z,978.88
2023-04-12T12:45:22.593Z,978.98
2023-04-12T12:50:24.617Z,978.93
2023-04-12T12:55:22.485Z,978.89
2023-04-12T13:00:22.430Z,978.77
2023-04-12T13:05:22.504Z,978.83
2023-04-12T13:10:22.319Z,978.83
2023-04-12T13:15:24.205Z,978.72
2023-04-12T13:20:22.229Z,978.69
2023-04-12T13:25:22.181Z,978.77
2023-04-12T13:30:22.083Z,978.72
2023-04-12T13:35:22.047Z,978.71
2023-04-12T13:40:21.966Z,978.74
2023-04-12T13:45:21.930Z,978.69
2023-04-12T13:50:21.867Z,978.72
2023-04-12T13:55:21.846Z,978.75
2023-04-12T14:00:21.795Z,978.74
2023-04-12T14:05:21.702Z,978.62
2023-04-12T14:10:21.655Z,978.74
2023-04-12T14:15:21.639Z,978.78
2023-04-12T14:20:21.567Z,978.84
2023-04-12T14:25:21.552Z,978.78
2023-04-12T14:30:21.434Z,978.83
2023-04-12T14:35:21.438Z,979.16
2023-04-12T14:40:21.358Z,979.44
2023-04-12T14:45:21.281Z,979.48
2023-04-12T14:50:21.201Z,979.30
2023-04-12T14:55:21.348Z,979.49
2023-04-12T15:00:21.120Z,979.37
2023-04-12T15:05:21.063Z,979.29
2023-04-12T15:10:20.990Z,979.31
2023-04-12T15:15:20.982Z,979.25
2023-04-12T15:20:20.900Z,979.36
2023-04-12T15:25:20.814Z,979.35
2023-04-12T15:30:20.791Z,979.44
2023-04-12T15:35:26.542Z,979.44
2023-04-12T15:40:21.679Z,979.58
2023-04-12T15:45:20.598Z,979.76
2023-04-12T15:50:20.575Z,979.90
2023-04-12T15:55:20.504Z,980.06
2023-04-12T16:00:20.441Z,980.16
2023-04-12T16:05:20.402Z,980.19
2023-04-12T16:10:20.337Z,980.24
2023-04-12T16:15:20.327Z,980.19
2023-04-12T16:20:27.249Z,980.22
2023-04-12T16:25:20.168Z,980.25
2023-04-12T16:30:20.260Z,980.49
2023-04-12T16:35:20.078Z,980.45
2023-04-12T16:40:20.021Z,980.33
2023-04-12T16:45:19.958Z,980.24
2023-04-12T16:50:20.960Z,980.31
2023-04-12T16:55:19.963Z,980.50
2023-04-12T17:00:19.798Z,980.39
2023-04-12T17:05:19.785Z,980.26
2023-04-12T17:10:19.664Z,980.17
2023-04-12T17:15:19.631Z,980.15
2023-04-12T17:20:19.553Z,980.14
2023-04-12T17:25:21.199Z,980.10
2023-04-12T17:30:19.447Z,980.19
2023-04-12T17:35:19.403Z,980.18
2023-04-12T17:40:19.330Z,980.07
2023-04-12T17:45:19.292Z,980.21
2023-04-12T17:50:19.217Z,980.07
2023-04-12T17:55:19.189Z,980.05
2023-04-12T18:00:19.126Z,980.28
2023-04-12T18:05:19.055Z,980.29
2023-04-12T18:10:21.357Z,980.26
2023-04-12T18:15:18.960Z,980.28
2023-04-12T18:20:18.904Z,980.18
2023-04-12T18:25:18.843Z,980.34
2023-04-12T18:30:18.777Z,980.36
2023-04-12T18:35:18.758Z,980.46
2023-04-12T18:40:18.698Z,980.55
2023-04-12T18:45:18.610Z,980.56
2023-04-12T18:50:18.571Z,980.59
2023-04-12T18:55:18.584Z,980.60
2023-04-12T19:00:18.485Z,980.65
2023-04-12T19:05:18.418Z,980.63
2023-04-12T19:10:18.413Z,980.74
2023-04-12T19:15:18.373Z,980.71
2023-04-12T19:20:18.228Z,980.66
2023-04-12T19:25:19.723Z,980.81
2023-04-12T19:30:18.151Z,980.82
2023-04-12T19:35:18.088Z,981.40
2023-04-12T19:40:18.029Z,981.38
2023-04-12T19:45:17.982Z,981.21
2023-04-12T19:50:17.942Z,981.16
2023-04-12T19:55:17.992Z,980.94
2023-04-12T20:00:17.805Z,980.98
2023-04-12T20:05:17.771Z,980.93
2023-04-12T20:10:17.699Z,980.80
2023-04-12T20:15:17.696Z,980.82
2023-04-12T20:20:17.615Z,980.81
2023-04-12T20:25:17.534Z,980.82
2023-04-12T20:30:17.494Z,980.92
2023-04-12T20:35:17.462Z,980.81
2023-04-12T20:40:17.391Z,980.74
2023-04-12T20:45:17.329Z,980.75
2023-04-12T20:50:17.264Z,980.65
2023-04-12T20:55:17.242Z,980.45
2023-04-12T21:00:17.177Z,980.50
2023-04-12T21:05:17.249Z,980.43
2023-04-12T21:10:17.057Z,980.57
2023-04-12T21:15:17.022Z,980.67
2023-04-12T21:20:16.957Z,980.74
2023-04-12T21:25:17.084Z,980.85
2023-04-12T21:30:16.852Z,980.97
2023-04-12T21:35:16.810Z,981.18
2023-04-12T21:40:16.744Z,981.19
2023-04-12T21:45:16.689Z,980.88
2023-04-12T21:50:16.649Z,980.85
2023-04-12T21:55:16.615Z,980.81
2023-04-12T22:00:16.519Z,980.78
2023-04-12T22:05:16.479Z,980.52
2023-04-12T22:10:16.444Z,980.51
2023-04-12T22:15:16.381Z,980.44
2023-04-12T22:20:22.807Z,980.21
2023-04-12T22:25:16.283Z,980.24
2023-04-12T22:30:16.282Z,980.16
2023-04-12T22:35:16.188Z,980.17
2023-04-12T22:40:16.119Z,980.23
2023-04-12T22:45:16.088Z,980.13
2023-04-12T22:50:16.119Z,980.16
2023-04-12T22:55:15.995Z,980.07
2023-04-12T23:00:17.055Z,979.97
2023-04-12T23:05:15.874Z,979.87
2023-04-12T23:10:15.763Z,979.68
2023-04-12T23:15:15.741Z,979.56
2023-04-12T23:20:15.719Z,979.51
2023-04-12T23:25:15.621Z,979.40
